Portada
METAR-TAF:

METAR-TAF

Aeroports :

Lublin, Polònia

latitud: 51-13-55N, longitud: 22-41-25E, altitud: 203 m

Observació

L'informe es va fer fa 33 minuts, a les 13:30 UTC
Vent 7 kt del Est, variant entre Est/Nord-Est i Sud-Est
Temperatura 29°C
Humitat 43%
Pressió 1020 hPa
Visibilitat 10 km o més
sense núvols per sota de 1500 mi sense presència de cumulonimbus.

METAR: EPLB 181330Z 09007KT 070V130 CAVOK 29/15 Q1020

Hora: 16:03 (14:03 UTC)

Pronòstic

L'informe es va fer fa 2 hores i 33 minuts, a les 11:30 UTC
Pronòstic vàlid del 18 a les 12 UTC al 18 a les 21 UTC
Vent 6 kt del Est/Sud-Est
Visibilitat 10 km o més
sense núvols per sota de 1500 mi sense presència de cumulonimbus.

TAF: EPLB 181130Z 1812/1821 12006KT CAVOK

Observacions i pronòstics meteorològics de més de 4000 aeroports (METAR i TAF).

Les estacions disponibles són els punts grocs i vermells al mapa.

Posi el ratolí al punt desitjat per veure el nom de l'estació.

Feu clic per veure les observacions i els pronòstics meteorològics.

Per canviar el mapa: feu clic els botons verds amb una creu de color negre per apropar; al botó verd amb un guió per allunyar la imatge; o en les fletxes verdes per a mapes adjacents.


METAR-TAF: